Time;durP1;ratioP1;P1;durP2;ratioP2;P2;SDS_P1;SDS_P2;PMS_P1;PMS_P2;Temp;Humidity;BMP_temperature;BMP_pressure;BME280_temperature;BME280_humidity;BME280_pressure;Samples;Min_cycle;Max_cycle;Signal;HPM_P1;HPM_P2
2023/07/17 00:01:57;;;;;;;14.98;2.70;;;16.60;99.90;;;;;;5112743;28;20506;-71
2023/07/17 00:04:23;;;;;;;9.15;2.35;;;16.60;99.90;;;;;;5112961;28;20040;-71
2023/07/17 00:06:48;;;;;;;12.23;2.22;;;16.80;99.90;;;;;;5111989;28;20491;-71
2023/07/17 00:09:14;;;;;;;9.40;2.35;;;16.70;99.90;;;;;;5112346;28;20048;-71
2023/07/17 00:11:40;;;;;;;9.13;2.20;;;16.80;99.90;;;;;;5113778;28;20123;-71
2023/07/17 00:14:06;;;;;;;9.27;2.08;;;16.70;99.90;;;;;;5113171;28;20479;-71
2023/07/17 00:16:31;;;;;;;11.13;2.53;;;16.70;99.90;;;;;;5110845;28;20127;-71
2023/07/17 00:18:57;;;;;;;9.25;2.83;;;16.70;99.90;;;;;;5113019;28;20038;-71
2023/07/17 00:21:23;;;;;;;7.40;2.38;;;16.60;99.90;;;;;;5111717;28;20047;-71
2023/07/17 00:23:48;;;;;;;10.50;2.60;;;16.60;99.90;;;;;;5113889;28;20032;-71
2023/07/17 00:26:14;;;;;;;9.48;3.13;;;16.60;99.90;;;;;;5115930;28;20043;-71
2023/07/17 00:28:40;;;;;;;8.93;2.30;;;16.60;99.90;;;;;;5117098;28;20051;-71
2023/07/17 00:31:06;;;;;;;8.35;2.45;;;16.50;99.90;;;;;;5115140;28;20471;-71
2023/07/17 00:33:32;;;;;;;8.95;2.30;;;16.50;99.90;;;;;;5116357;28;20056;-71
2023/07/17 00:35:57;;;;;;;10.05;2.75;;;16.50;99.90;;;;;;5115202;28;20122;-71
2023/07/17 00:38:23;;;;;;;8.82;2.40;;;16.60;99.90;;;;;;5116126;28;20043;-71
2023/07/17 00:40:49;;;;;;;9.90;2.67;;;16.60;99.90;;;;;;5116448;28;20044;-71
2023/07/17 00:43:15;;;;;;;8.82;2.47;;;16.60;99.90;;;;;;5115630;28;20047;-71
2023/07/17 00:45:44;;;;;;;11.65;2.65;;;16.50;99.90;;;;;;5114476;28;20169;-71
2023/07/17 00:48:11;;;;;;;12.45;2.25;;;16.50;99.90;;;;;;5115724;28;20105;-71
2023/07/17 00:50:38;;;;;;;15.45;2.97;;;16.40;99.90;;;;;;5114905;28;20043;-71
2023/07/17 00:53:08;;;;;;;8.35;2.50;;;16.40;99.90;;;;;;5115024;28;20047;-71
2023/07/17 00:55:34;;;;;;;9.75;2.60;;;16.40;99.90;;;;;;5114865;28;20509;-71
2023/07/17 00:58:07;;;;;;;13.68;3.13;;;16.40;99.90;;;;;;5116648;28;20111;-71
2023/07/17 01:00:33;;;;;;;11.45;2.50;;;16.30;99.90;;;;;;5115674;28;20399;-72
2023/07/17 01:02:59;;;;;;;7.53;2.42;;;16.20;99.90;;;;;;5115183;28;20047;-71
2023/07/17 01:05:24;;;;;;;11.25;3.10;;;16.20;99.90;;;;;;5114594;28;20055;-71
2023/07/17 01:07:51;;;;;;;10.85;2.65;;;16.20;99.90;;;;;;5114784;28;20031;-71
2023/07/17 01:10:17;;;;;;;10.18;2.78;;;16.10;99.90;;;;;;5114463;28;20403;-71
2023/07/17 01:12:42;;;;;;;11.13;2.70;;;16.10;99.90;;;;;;5115254;28;20055;-71
2023/07/17 01:15:08;;;;;;;15.32;3.05;;;16.10;99.90;;;;;;5117277;28;20051;-71
2023/07/17 01:17:34;;;;;;;14.27;2.70;;;16.00;99.90;;;;;;5115359;27;20047;-71
2023/07/17 01:20:00;;;;;;;14.18;2.95;;;15.90;99.90;;;;;;5113921;28;20078;-71
2023/07/17 01:22:29;;;;;;;16.10;2.92;;;15.90;99.90;;;;;;5114190;28;20074;-71
2023/07/17 01:24:55;;;;;;;10.93;2.70;;;15.80;99.90;;;;;;5115873;28;20421;-71
2023/07/17 01:27:21;;;;;;;13.40;2.63;;;15.80;99.90;;;;;;5114063;28;20059;-71
2023/07/17 01:29:47;;;;;;;13.48;3.10;;;15.70;99.90;;;;;;5114708;28;20059;-71
2023/07/17 01:32:12;;;;;;;13.07;2.63;;;15.80;99.90;;;;;;5114726;28;20074;-71
2023/07/17 01:34:41;;;;;;;13.02;3.42;;;15.80;99.90;;;;;;5112040;28;20399;-71
2023/07/17 01:37:10;;;;;;;9.13;2.58;;;15.70;99.90;;;;;;5114676;28;20048;-71
2023/07/17 01:39:36;;;;;;;13.50;3.00;;;15.70;99.90;;;;;;5113949;28;20046;-71
2023/07/17 01:42:03;;;;;;;12.15;3.22;;;15.60;99.90;;;;;;5114596;28;20039;-71
2023/07/17 01:44:30;;;;;;;9.90;2.88;;;15.70;99.90;;;;;;5115711;28;20043;-71
2023/07/17 01:46:56;;;;;;;11.30;3.75;;;15.60;99.90;;;;;;5114083;28;20054;-71
2023/07/17 01:49:24;;;;;;;11.70;3.42;;;15.70;99.90;;;;;;5113772;28;20051;-71
2023/07/17 01:51:50;;;;;;;10.13;2.78;;;15.70;99.90;;;;;;5115044;28;20050;-71
2023/07/17 01:54:16;;;;;;;10.77;3.70;;;15.60;99.90;;;;;;5113922;28;20103;-71
2023/07/17 01:56:44;;;;;;;15.07;3.40;;;15.60;99.90;;;;;;5114583;28;20051;-71
2023/07/17 01:59:10;;;;;;;13.68;3.72;;;15.60;99.90;;;;;;5113787;28;20036;-71
2023/07/17 02:01:35;;;;;;;11.52;3.13;;;15.60;99.90;;;;;;5114218;28;20043;-71
2023/07/17 02:04:01;;;;;;;14.90;3.90;;;15.60;99.90;;;;;;5115281;28;20047;-71
2023/07/17 02:06:28;;;;;;;14.25;3.65;;;15.70;99.90;;;;;;5114062;28;20399;-71
2023/07/17 02:08:54;;;;;;;16.83;3.60;;;15.70;99.90;;;;;;5113000;28;20122;-71
2023/07/17 02:11:27;;;;;;;13.30;3.10;;;15.70;99.90;;;;;;5113465;28;20100;-71
2023/07/17 02:13:52;;;;;;;16.23;3.75;;;15.70;99.90;;;;;;5114588;28;20043;-70
2023/07/17 02:16:18;;;;;;;14.20;3.83;;;15.80;99.90;;;;;;5115033;28;20170;-71
2023/07/17 02:18:44;;;;;;;11.65;3.55;;;15.80;99.90;;;;;;5114162;28;20063;-71
2023/07/17 02:21:10;;;;;;;14.65;3.22;;;15.80;99.90;;;;;;5113603;28;20118;-71
2023/07/17 02:23:38;;;;;;;11.18;3.65;;;15.80;99.90;;;;;;5114222;28;20123;-71
2023/07/17 02:26:04;;;;;;;15.65;3.78;;;15.70;99.90;;;;;;5114498;28;20040;-71
2023/07/17 02:28:30;;;;;;;12.70;4.10;;;15.70;99.90;;;;;;5113271;28;20491;-71
2023/07/17 02:30:58;;;;;;;13.25;3.88;;;15.80;99.90;;;;;;5112541;28;20104;-71
2023/07/17 02:33:24;;;;;;;17.55;3.95;;;15.80;99.90;;;;;;5113330;28;20138;-71
2023/07/17 02:35:50;;;;;;;14.45;3.58;;;15.80;99.90;;;;;;5112541;28;20079;-71
2023/07/17 02:38:15;;;;;;;17.13;4.07;;;15.80;99.90;;;;;;5113725;28;20042;-71
2023/07/17 02:40:41;;;;;;;15.23;3.40;;;15.80;99.90;;;;;;5112953;28;20147;-71
2023/07/17 02:43:07;;;;;;;17.63;3.83;;;15.80;99.90;;;;;;5114320;28;20123;-71
2023/07/17 02:45:33;;;;;;;12.40;3.67;;;15.70;99.90;;;;;;5111900;28;20093;-71
2023/07/17 02:47:59;;;;;;;12.32;3.60;;;15.80;99.90;;;;;;5114489;28;20044;-71
2023/07/17 02:50:27;;;;;;;14.90;4.07;;;15.80;99.90;;;;;;5113544;28;20130;-71
2023/07/17 02:52:53;;;;;;;19.52;4.10;;;15.80;99.90;;;;;;5112404;28;20126;-71
2023/07/17 02:55:18;;;;;;;15.18;3.97;;;15.70;99.90;;;;;;5114589;28;20039;-71
2023/07/17 02:57:45;;;;;;;15.60;4.18;;;15.60;99.90;;;;;;5111846;28;20571;-71
2023/07/17 03:00:12;;;;;;;14.82;3.67;;;15.60;99.90;;;;;;5114520;28;20126;-71
2023/07/17 03:02:42;;;;;;;20.35;4.40;;;15.60;99.90;;;;;;5112362;28;20130;-71
2023/07/17 03:05:08;;;;;;;18.20;4.30;;;15.60;99.90;;;;;;5112184;28;20489;-71
2023/07/17 03:07:47;;;;;;;13.20;4.07;;;15.50;99.90;;;;;;5111896;28;20088;-71
2023/07/17 03:10:13;;;;;;;15.48;3.92;;;15.50;99.90;;;;;;5111672;28;20047;-71
2023/07/17 03:12:39;;;;;;;19.45;4.15;;;15.40;99.90;;;;;;5111817;28;20398;-71
2023/07/17 03:15:06;;;;;;;13.20;3.72;;;15.40;99.90;;;;;;5113635;28;20047;-71
2023/07/17 03:17:32;;;;;;;17.48;4.30;;;15.40;99.90;;;;;;5112625;28;20044;-71
2023/07/17 03:19:59;;;;;;;12.20;3.85;;;15.40;99.90;;;;;;5114256;27;20054;-72
2023/07/17 03:22:26;;;;;;;13.52;4.55;;;15.50;99.90;;;;;;5112747;28;20122;-71
2023/07/17 03:24:52;;;;;;;16.52;4.20;;;15.40;99.90;;;;;;5112876;28;20051;-71
2023/07/17 03:27:21;;;;;;;17.58;4.10;;;15.40;99.90;;;;;;5113050;28;20038;-71
2023/07/17 03:29:48;;;;;;;16.90;3.97;;;15.20;99.90;;;;;;5112288;28;20039;-71
2023/07/17 03:32:14;;;;;;;20.08;4.70;;;15.30;99.90;;;;;;5112290;28;20074;-71
2023/07/17 03:34:39;;;;;;;15.95;4.03;;;15.40;99.90;;;;;;5111973;28;20098;-71
2023/07/17 03:37:05;;;;;;;17.45;4.68;;;15.40;99.90;;;;;;5112282;28;20044;-71
2023/07/17 03:39:31;;;;;;;14.25;4.15;;;15.40;99.90;;;;;;5112671;28;20056;-71
2023/07/17 03:41:57;;;;;;;13.52;4.00;;;15.50;99.90;;;;;;5110550;28;20036;-71
2023/07/17 03:44:25;;;;;;;19.15;4.68;;;15.50;99.90;;;;;;5112567;28;20479;-71
2023/07/17 03:46:51;;;;;;;14.73;3.78;;;15.50;99.90;;;;;;5111300;28;20053;-71
2023/07/17 03:49:16;;;;;;;12.68;3.65;;;15.60;99.90;;;;;;5112096;28;20071;-71
2023/07/17 03:51:42;;;;;;;16.60;4.45;;;15.70;99.90;;;;;;5111570;28;20043;-71
2023/07/17 03:54:09;;;;;;;13.68;4.05;;;15.70;99.90;;;;;;5110901;28;20101;-71
2023/07/17 03:56:36;;;;;;;12.82;3.85;;;15.70;99.90;;;;;;5111753;28;20495;-71
2023/07/17 03:59:01;;;;;;;14.30;3.92;;;15.70;99.90;;;;;;5111232;28;20151;-71
2023/07/17 04:01:27;;;;;;;16.10;4.55;;;15.70;99.90;;;;;;5112309;28;20052;-71
2023/07/17 04:03:53;;;;;;;20.75;4.10;;;15.70;99.90;;;;;;5111458;28;20052;-71
2023/07/17 04:06:19;;;;;;;12.43;4.18;;;15.70;99.90;;;;;;5113590;28;20391;-71
2023/07/17 04:08:45;;;;;;;12.75;4.22;;;15.70;99.90;;;;;;5112574;28;20105;-71
2023/07/17 04:11:10;;;;;;;15.45;3.92;;;15.70;99.90;;;;;;5113505;28;20036;-71
2023/07/17 04:13:36;;;;;;;15.60;4.65;;;15.70;99.90;;;;;;5114289;28;20456;-71
2023/07/17 04:16:02;;;;;;;15.02;4.22;;;15.70;99.90;;;;;;5113491;28;20032;-71
2023/07/17 04:18:28;;;;;;;15.20;4.53;;;15.70;99.90;;;;;;5113316;28;20110;-71
2023/07/17 04:20:54;;;;;;;20.15;4.78;;;15.70;99.90;;;;;;5113460;28;20040;-71
2023/07/17 04:23:20;;;;;;;15.93;4.97;;;15.80;99.90;;;;;;5145232;27;20042;-71
2023/07/17 04:25:48;;;;;;;17.35;4.40;;;15.80;99.90;;;;;;5111311;28;20158;-70
2023/07/17 04:28:14;;;;;;;18.88;4.18;;;15.70;99.90;;;;;;5111153;28;20047;-71
2023/07/17 04:30:39;;;;;;;17.83;4.40;;;15.70;99.90;;;;;;5110865;28;20043;-70
2023/07/17 04:33:05;;;;;;;14.93;4.40;;;15.70;99.90;;;;;;5111755;28;20109;-71
2023/07/17 04:35:36;;;;;;;12.63;4.50;;;15.70;99.90;;;;;;5111835;28;20475;-71
2023/07/17 04:38:03;;;;;;;14.75;4.10;;;15.70;99.90;;;;;;5110257;28;20088;-71
2023/07/17 04:40:30;;;;;;;17.38;4.45;;;15.70;99.90;;;;;;5110353;28;20130;-71
2023/07/17 04:42:57;;;;;;;16.63;4.30;;;15.70;99.90;;;;;;5112374;28;20383;-71
2023/07/17 04:45:23;;;;;;;14.65;4.40;;;15.80;99.90;;;;;;5110405;28;20490;-70
2023/07/17 04:47:49;;;;;;;14.85;4.63;;;15.70;99.90;;;;;;5112126;28;20079;-70
2023/07/17 04:50:14;;;;;;;18.52;4.60;;;15.70;99.90;;;;;;5111810;28;20045;-70
2023/07/17 04:52:43;;;;;;;18.60;4.40;;;15.60;99.90;;;;;;5110711;28;20037;-70
2023/07/17 04:55:14;;;;;;;15.13;3.90;;;15.60;99.90;;;;;;5111274;28;20047;-70
2023/07/17 04:57:40;;;;;;;17.25;3.78;;;15.60;99.90;;;;;;5111543;28;20040;-70
2023/07/17 05:00:09;;;;;;;13.73;4.20;;;15.70;99.90;;;;;;5112035;28;20506;-70
2023/07/17 05:02:34;;;;;;;14.10;3.85;;;15.70;99.90;;;;;;5111787;28;20093;-70
2023/07/17 05:05:03;;;;;;;12.50;4.72;;;15.80;99.90;;;;;;5110864;28;20051;-70
2023/07/17 05:07:31;;;;;;;23.67;5.03;;;15.90;99.90;;;;;;5111003;28;20109;-70
2023/07/17 05:09:57;;;;;;;9.50;3.53;;;15.80;99.90;;;;;;5111900;28;20052;-70
2023/07/17 05:12:23;;;;;;;9.57;3.60;;;15.80;99.90;;;;;;5113473;28;20036;-70
2023/07/17 05:14:51;;;;;;;7.95;2.75;;;15.70;99.90;;;;;;5114551;28;20047;-70
2023/07/17 05:17:20;;;;;;;11.88;3.97;;;15.60;99.90;;;;;;5115420;28;20039;-70
2023/07/17 05:19:46;;;;;;;14.63;4.35;;;15.50;99.90;;;;;;5114561;28;20084;-69
2023/07/17 05:22:11;;;;;;;17.85;4.40;;;15.50;99.90;;;;;;5113970;28;20063;-70
2023/07/17 05:24:37;;;;;;;11.85;4.15;;;15.50;99.90;;;;;;5114163;28;20043;-70
2023/07/17 05:27:07;;;;;;;13.13;4.00;;;15.50;99.90;;;;;;5115108;28;20058;-70
2023/07/17 05:29:33;;;;;;;13.35;4.90;;;15.50;99.90;;;;;;5114181;28;20058;-70
2023/07/17 05:31:58;;;;;;;14.93;4.88;;;15.50;99.90;;;;;;5114928;28;20044;-70
2023/07/17 05:34:24;;;;;;;13.63;4.63;;;15.50;99.90;;;;;;5113131;28;20065;-70
2023/07/17 05:36:50;;;;;;;13.05;4.50;;;15.50;99.90;;;;;;5113656;28;20048;-71
2023/07/17 05:39:16;;;;;;;12.35;3.83;;;15.60;99.90;;;;;;5114355;28;20044;-69
2023/07/17 05:41:41;;;;;;;12.48;4.65;;;15.60;99.90;;;;;;5112389;28;20112;-69
2023/07/17 05:44:07;;;;;;;15.82;4.07;;;15.70;99.90;;;;;;5113389;28;20074;-69
2023/07/17 05:46:33;;;;;;;16.45;4.32;;;15.80;99.90;;;;;;5112527;28;20055;-69
2023/07/17 05:48:58;;;;;;;14.27;4.22;;;15.80;99.90;;;;;;5115456;28;20043;-69
2023/07/17 05:51:24;;;;;;;11.02;3.70;;;15.90;99.90;;;;;;5115220;28;20048;-69
2023/07/17 05:53:50;;;;;;;11.95;4.65;;;15.90;99.90;;;;;;5147175;27;20035;-69
2023/07/17 05:56:18;;;;;;;11.05;3.33;;;16.00;99.90;;;;;;5113435;28;20040;-69
2023/07/17 05:58:44;;;;;;;10.50;3.63;;;15.90;99.90;;;;;;5113459;28;20047;-69
2023/07/17 06:01:13;;;;;;;11.05;3.72;;;16.00;99.90;;;;;;5114157;28;20040;-69
2023/07/17 06:03:38;;;;;;;10.98;3.20;;;15.90;99.90;;;;;;5114646;28;20047;-69
2023/07/17 06:06:04;;;;;;;8.40;2.95;;;15.90;99.90;;;;;;5114780;28;20046;-69
2023/07/17 06:08:30;;;;;;;6.82;2.90;;;15.90;99.90;;;;;;5112831;28;20044;-70
2023/07/17 06:10:58;;;;;;;8.50;3.40;;;15.80;99.90;;;;;;5112652;28;20048;-70
2023/07/17 06:13:24;;;;;;;10.85;3.17;;;15.90;99.90;;;;;;5113367;28;20050;-70
2023/07/17 06:15:51;;;;;;;9.85;2.83;;;15.90;99.90;;;;;;5112679;28;20130;-69
2023/07/17 06:18:17;;;;;;;5.55;2.53;;;16.00;99.90;;;;;;5113337;28;20048;-70
2023/07/17 06:20:42;;;;;;;8.23;2.70;;;16.00;99.90;;;;;;5113808;28;20460;-70
2023/07/17 06:23:08;;;;;;;10.68;2.92;;;16.20;99.90;;;;;;5147222;27;20122;-70
2023/07/17 06:25:36;;;;;;;9.77;3.28;;;16.30;99.90;;;;;;5112872;28;20052;-70
2023/07/17 06:28:01;;;;;;;7.63;2.88;;;16.50;99.90;;;;;;5113283;28;20047;-70
2023/07/17 06:30:27;;;;;;;9.77;2.78;;;16.60;99.90;;;;;;5112427;28;20551;-71
2023/07/17 06:32:53;;;;;;;8.02;3.20;;;16.80;99.90;;;;;;5112725;28;20184;-70
2023/07/17 06:35:22;;;;;;;10.77;3.67;;;16.90;99.90;;;;;;5114224;28;20051;-70
2023/07/17 06:37:50;;;;;;;8.43;2.58;;;17.00;99.90;;;;;;5111475;28;20071;-71
2023/07/17 06:40:19;;;;;;;8.18;2.63;;;17.10;99.90;;;;;;5112710;28;20086;-70
2023/07/17 06:42:47;;;;;;;9.93;2.78;;;17.10;99.90;;;;;;5111759;28;20122;-70
2023/07/17 06:45:14;;;;;;;8.00;3.00;;;17.10;99.90;;;;;;5114032;28;20075;-70
2023/07/17 06:47:39;;;;;;;7.72;3.05;;;17.00;99.90;;;;;;5113372;28;20381;-73
2023/07/17 06:50:09;;;;;;;9.18;3.05;;;17.10;99.90;;;;;;5112063;28;20048;-73
2023/07/17 06:52:38;;;;;;;10.32;3.28;;;17.20;99.90;;;;;;5112440;28;20047;-72
2023/07/17 06:55:06;;;;;;;11.00;3.25;;;17.30;99.90;;;;;;5112428;28;20085;-72
2023/07/17 06:57:32;;;;;;;9.60;3.15;;;17.30;99.90;;;;;;5111722;28;20079;-71
2023/07/17 06:59:58;;;;;;;12.93;2.85;;;17.40;99.90;;;;;;5112435;28;20056;-69
2023/07/17 07:02:24;;;;;;;8.73;2.67;;;17.50;99.90;;;;;;5112544;28;20039;-70
2023/07/17 07:04:52;;;;;;;8.55;2.70;;;17.60;99.90;;;;;;5112571;28;20479;-70
2023/07/17 07:07:17;;;;;;;10.05;2.65;;;17.70;99.90;;;;;;5113338;28;20058;-72
2023/07/17 07:09:43;;;;;;;8.80;2.85;;;17.60;99.90;;;;;;5106646;27;20044;-75
2023/07/17 07:12:09;;;;;;;7.43;2.78;;;17.60;99.90;;;;;;5111799;28;20070;-73
2023/07/17 07:14:35;;;;;;;10.07;3.00;;;17.70;99.90;;;;;;5111081;28;20084;-74
2023/07/17 07:17:01;;;;;;;8.00;2.75;;;17.80;99.90;;;;;;5112195;28;20051;-73
2023/07/17 07:19:26;;;;;;;8.82;2.92;;;17.90;99.90;;;;;;5111473;28;20028;-77
2023/07/17 07:21:52;;;;;;;5.60;2.60;;;17.90;99.90;;;;;;5111198;28;20432;-75
2023/07/17 07:24:18;;;;;;;9.27;3.28;;;18.10;99.90;;;;;;5111121;28;20130;-75
2023/07/17 07:26:44;;;;;;;7.97;2.85;;;18.00;99.90;;;;;;5111606;28;20055;-74
2023/07/17 07:29:09;;;;;;;7.07;2.88;;;18.00;99.90;;;;;;5109125;28;20042;-75
2023/07/17 07:31:35;;;;;;;8.25;3.05;;;18.50;99.90;;;;;;5110652;28;20075;-75
2023/07/17 07:34:01;;;;;;;6.78;2.47;;;19.10;99.90;;;;;;5110140;28;20051;-75
2023/07/17 07:36:28;;;;;;;6.97;2.63;;;19.80;99.90;;;;;;5109843;28;20044;-75
2023/07/17 07:38:54;;;;;;;13.32;3.20;;;19.80;99.90;;;;;;5111429;28;20036;-75
2023/07/17 07:41:23;;;;;;;5.97;2.47;;;20.10;99.90;;;;;;5111063;28;20101;-75
2023/07/17 07:43:49;;;;;;;7.45;2.42;;;20.60;99.90;;;;;;5084765;22;20045;-75
2023/07/17 07:46:15;;;;;;;8.55;2.33;;;20.60;99.90;;;;;;5048800;28;20041;-74
2023/07/17 07:48:41;;;;;;;12.10;2.60;;;20.20;99.90;;;;;;5050248;28;20466;-74
2023/07/17 07:51:06;;;;;;;4.05;2.10;;;20.20;99.90;;;;;;5039177;28;20076;-75
2023/07/17 07:53:32;;;;;;;6.65;2.33;;;20.00;99.90;;;;;;5047569;28;20052;-81
2023/07/17 07:56:00;;;;;;;6.97;2.28;;;20.20;99.90;;;;;;5049508;28;20066;-79
2023/07/17 07:58:26;;;;;;;6.10;2.08;;;20.70;99.90;;;;;;5051805;28;20041;-74
2023/07/17 08:00:53;;;;;;;9.57;2.47;;;21.30;99.90;;;;;;5049362;28;20064;-77
2023/07/17 08:03:18;;;;;;;6.18;1.98;;;21.70;99.90;;;;;;5048456;28;20497;-75
2023/07/17 08:05:47;;;;;;;7.68;2.38;;;21.90;99.70;;;;;;5051333;28;20044;-71
2023/07/17 08:08:13;;;;;;;5.57;2.10;;;21.90;99.80;;;;;;5048735;28;20055;-70
2023/07/17 08:10:39;;;;;;;6.22;2.17;;;21.80;99.90;;;;;;5039856;28;20119;-72
2023/07/17 08:13:05;;;;;;;8.70;2.47;;;22.20;99.50;;;;;;5047982;28;20152;-73
2023/07/17 08:15:31;;;;;;;7.55;2.50;;;22.40;98.50;;;;;;5047377;28;20540;-74
2023/07/17 08:17:57;;;;;;;7.65;2.40;;;22.40;98.30;;;;;;5050438;28;20120;-73
2023/07/17 08:20:23;;;;;;;8.48;2.60;;;22.50;98.00;;;;;;5045712;28;20080;-73
2023/07/17 08:22:55;;;;;;;8.32;3.15;;;22.40;97.70;;;;;;5048069;28;20049;-73
2023/07/17 08:25:24;;;;;;;8.02;2.42;;;22.50;97.90;;;;;;5048331;28;20051;-72
2023/07/17 08:27:53;;;;;;;7.38;2.38;;;22.20;98.00;;;;;;5036707;28;20049;-72
2023/07/17 08:30:18;;;;;;;5.47;1.90;;;22.30;98.40;;;;;;5049520;28;20051;-71
2023/07/17 08:32:47;;;;;;;4.32;1.95;;;22.20;97.50;;;;;;5051265;28;20037;-72
2023/07/17 08:35:13;;;;;;;5.03;2.00;;;22.00;97.80;;;;;;5047061;28;20049;-71
2023/07/17 08:37:42;;;;;;;6.57;1.80;;;22.10;97.50;;;;;;5039122;28;20544;-71
2023/07/17 08:40:10;;;;;;;6.20;2.10;;;22.50;97.40;;;;;;5044836;28;20099;-71
2023/07/17 08:42:38;;;;;;;6.35;2.03;;;22.40;96.40;;;;;;5033721;28;20065;-72
2023/07/17 08:45:06;;;;;;;6.90;1.90;;;22.60;97.50;;;;;;5039728;28;20419;-72
2023/07/17 08:47:32;;;;;;;7.53;2.20;;;23.00;96.60;;;;;;5034568;28;20041;-71
2023/07/17 08:49:58;;;;;;;7.00;1.70;;;23.20;96.40;;;;;;5035113;28;20113;-71
2023/07/17 08:52:28;;;;;;;7.93;2.15;;;23.50;96.10;;;;;;5039996;28;20049;-71
2023/07/17 08:54:54;;;;;;;6.85;3.17;;;23.60;96.30;;;;;;5035456;28;20056;-71
2023/07/17 08:57:32;;;;;;;6.35;2.20;;;23.90;96.70;;;;;;5035187;28;20090;-71
2023/07/17 08:59:59;;;;;;;4.75;2.03;;;24.10;95.40;;;;;;5034797;28;20057;-71
2023/07/17 09:02:25;;;;;;;7.63;2.38;;;24.20;95.20;;;;;;5035764;28;20117;-72
2023/07/17 09:04:53;;;;;;;5.07;2.20;;;24.40;94.90;;;;;;5049723;28;20056;-72
2023/07/17 09:07:19;;;;;;;7.55;2.70;;;23.70;94.30;;;;;;5052906;28;20033;-72
2023/07/17 09:09:44;;;;;;;6.70;2.00;;;23.80;95.60;;;;;;5052590;28;20043;-72
2023/07/17 09:12:11;;;;;;;8.30;2.50;;;24.10;94.70;;;;;;5048188;28;20057;-71
2023/07/17 09:14:38;;;;;;;5.85;2.13;;;23.80;95.40;;;;;;5052232;28;20087;-71
2023/07/17 09:17:07;;;;;;;7.82;2.22;;;23.80;94.40;;;;;;5048412;28;20476;-71
2023/07/17 09:19:37;;;;;;;5.40;2.20;;;23.40;94.70;;;;;;5053744;28;20052;-73
2023/07/17 09:22:05;;;;;;;7.30;2.42;;;22.60;95.70;;;;;;5054876;28;20048;-73
2023/07/17 09:24:36;;;;;;;7.63;2.17;;;22.70;96.00;;;;;;5053725;28;20519;-73
2023/07/17 09:27:06;;;;;;;4.70;1.90;;;23.30;94.90;;;;;;5053888;28;20056;-73
2023/07/17 09:29:32;;;;;;;5.15;1.90;;;23.60;94.40;;;;;;5055085;28;20040;-73
2023/07/17 09:32:14;;;;;;;6.32;1.70;;;23.80;93.80;;;;;;5052969;28;20067;-73
2023/07/17 09:34:40;;;;;;;6.75;2.10;;;24.00;93.80;;;;;;5052541;28;20037;-73
2023/07/17 09:37:09;;;;;;;4.40;1.58;;;24.00;93.80;;;;;;5053785;28;20071;-73
2023/07/17 09:39:38;;;;;;;6.22;2.15;;;23.60;92.50;;;;;;5051118;28;20389;-74
2023/07/17 09:42:20;;;;;;;4.88;2.20;;;23.40;94.20;;;;;;5052474;28;20412;-73
2023/07/17 09:44:46;;;;;;;6.03;2.05;;;23.40;95.40;;;;;;5053701;28;20139;-74
2023/07/17 09:47:12;;;;;;;4.70;2.00;;;23.70;95.40;;;;;;5052161;28;20131;-73
2023/07/17 09:49:39;;;;;;;6.25;2.05;;;24.10;93.10;;;;;;5054134;28;20106;-73
2023/07/17 09:52:05;;;;;;;6.70;2.40;;;24.00;93.00;;;;;;5054607;28;20389;-73
2023/07/17 09:54:33;;;;;;;5.47;2.25;;;24.00;93.20;;;;;;5053002;28;20048;-72
2023/07/17 09:56:59;;;;;;;7.00;2.50;;;23.90;94.10;;;;;;5053758;28;20451;-72
2023/07/17 09:59:31;;;;;;;5.65;2.30;;;24.00;94.30;;;;;;5054465;28;20037;-73
2023/07/17 10:01:59;;;;;;;8.85;2.60;;;23.80;94.10;;;;;;5053562;28;20124;-73
2023/07/17 10:04:40;;;;;;;7.25;2.50;;;23.40;94.10;;;;;;5052666;28;20049;-73
2023/07/17 10:07:07;;;;;;;9.63;2.50;;;23.60;95.00;;;;;;5052419;28;20083;-73
2023/07/17 10:09:36;;;;;;;11.00;4.18;;;23.40;95.00;;;;;;5053945;28;20667;-73
2023/07/17 10:12:03;;;;;;;5.78;2.42;;;23.50;93.70;;;;;;5053279;28;20084;-73
2023/07/17 10:14:30;;;;;;;6.22;2.40;;;23.40;93.80;;;;;;5054191;28;20059;-73
2023/07/17 10:16:56;;;;;;;7.35;3.03;;;23.30;94.90;;;;;;5053139;28;20049;-75
2023/07/17 10:19:26;;;;;;;7.60;2.50;;;22.90;95.00;;;;;;5054453;28;20087;-73
2023/07/17 10:21:57;;;;;;;5.63;2.42;;;22.60;95.00;;;;;;5052089;28;20056;-73
2023/07/17 10:24:24;;;;;;;8.00;2.40;;;22.70;95.80;;;;;;5053167;28;20041;-73
2023/07/17 10:26:52;;;;;;;6.88;2.10;;;23.30;95.50;;;;;;5053970;28;20051;-72
2023/07/17 10:29:32;;;;;;;8.82;2.40;;;23.20;94.90;;;;;;5051676;28;20076;-73
2023/07/17 10:31:58;;;;;;;5.95;2.70;;;23.40;95.20;;;;;;5053819;28;20049;-73
2023/07/17 10:34:51;;;;;;;7.13;2.20;;;23.90;94.60;;;;;;5052535;28;20558;-73
2023/07/17 10:37:31;;;;;;;5.07;2.15;;;24.40;94.60;;;;;;5053799;28;20045;-73
2023/07/17 10:40:05;;;;;;;5.55;2.13;;;24.20;94.00;;;;;;5052021;28;20045;-74
2023/07/17 10:42:32;;;;;;;6.28;2.53;;;23.90;94.10;;;;;;5052701;28;20085;-73
2023/07/17 10:45:11;;;;;;;6.97;2.50;;;23.50;94.60;;;;;;5054036;28;20045;-73
2023/07/17 10:47:37;;;;;;;5.32;2.30;;;23.70;94.60;;;;;;5053072;28;20408;-73
2023/07/17 10:50:06;;;;;;;5.35;2.10;;;23.70;94.20;;;;;;5051161;28;20118;-73
2023/07/17 10:52:36;;;;;;;6.65;2.35;;;23.60;94.10;;;;;;5051861;28;20550;-73
2023/07/17 10:55:05;;;;;;;5.20;2.00;;;23.60;94.30;;;;;;5052286;28;20055;-73
2023/07/17 10:57:32;;;;;;;8.18;2.75;;;23.40;93.30;;;;;;5051400;28;20128;-73
2023/07/17 10:59:58;;;;;;;4.88;2.20;;;23.70;94.10;;;;;;5052566;28;20068;-73
2023/07/17 11:02:27;;;;;;;8.30;2.72;;;23.90;93.90;;;;;;5054450;28;20115;-73
2023/07/17 11:04:54;;;;;;;6.82;2.40;;;23.80;93.80;;;;;;5052827;28;20090;-73
2023/07/17 11:07:20;;;;;;;8.70;2.08;;;23.60;93.30;;;;;;5053856;28;20052;-73
2023/07/17 11:09:46;;;;;;;3.90;2.00;;;23.40;93.90;;;;;;5051716;28;20040;-73
2023/07/17 11:12:11;;;;;;;5.15;1.85;;;23.30;94.10;;;;;;5051771;28;20098;-73
2023/07/17 11:14:37;;;;;;;7.15;2.20;;;23.50;93.70;;;;;;5051662;28;20064;-73
2023/07/17 11:17:03;;;;;;;5.25;2.45;;;23.90;93.10;;;;;;5050997;28;20053;-73
2023/07/17 11:19:29;;;;;;;4.82;2.10;;;23.80;92.20;;;;;;5052065;28;20117;-73
2023/07/17 11:21:55;;;;;;;6.18;2.17;;;24.00;92.20;;;;;;5052269;28;20049;-73
2023/07/17 11:24:21;;;;;;;8.25;2.30;;;24.30;92.10;;;;;;5052644;28;20107;-73
2023/07/17 11:26:47;;;;;;;7.07;2.10;;;24.10;91.70;;;;;;5051211;28;20045;-73
2023/07/17 11:29:15;;;;;;;5.82;2.13;;;24.20;92.20;;;;;;5054338;28;20045;-73
2023/07/17 11:31:41;;;;;;;8.07;2.10;;;24.00;93.20;;;;;;5051470;28;20049;-73
2023/07/17 11:34:11;;;;;;;6.75;2.50;;;24.40;92.90;;;;;;5051522;28;20091;-73
2023/07/17 11:36:44;;;;;;;5.65;2.33;;;24.70;93.30;;;;;;5052576;28;20049;-74
2023/07/17 11:39:13;;;;;;;8.15;2.10;;;24.70;92.70;;;;;;5050247;28;20053;-73
2023/07/17 11:41:45;;;;;;;5.78;2.13;;;24.40;91.40;;;;;;5053779;28;20041;-73
2023/07/17 11:44:11;;;;;;;10.95;2.35;;;24.00;92.60;;;;;;5052714;28;20057;-74
2023/07/17 11:46:41;;;;;;;7.15;2.30;;;23.60;92.40;;;;;;5051930;28;20037;-74
2023/07/17 11:49:06;;;;;;;7.15;2.20;;;23.40;92.50;;;;;;5050955;28;20045;-74
2023/07/17 11:51:42;;;;;;;5.60;2.30;;;23.30;92.80;;;;;;5052125;28;20041;-74
2023/07/17 11:54:08;;;;;;;5.97;2.50;;;23.40;92.70;;;;;;5050672;28;20103;-73
2023/07/17 11:56:40;;;;;;;7.22;2.72;;;23.50;93.00;;;;;;5051058;28;20053;-73
2023/07/17 11:59:15;;;;;;;5.90;2.50;;;23.70;92.60;;;;;;5053056;28;20037;-74
2023/07/17 12:01:43;;;;;;;6.85;2.08;;;23.80;92.90;;;;;;5059829;28;20496;-73
2023/07/17 12:04:25;;;;;;;5.05;1.90;;;23.90;92.00;;;;;;5051263;28;20045;-74
2023/07/17 12:06:52;;;;;;;5.10;2.15;;;23.90;91.50;;;;;;5050041;28;20053;-74
2023/07/17 12:09:18;;;;;;;6.03;2.22;;;23.80;90.90;;;;;;5050844;28;20090;-73
2023/07/17 12:11:44;;;;;;;5.72;1.95;;;23.80;90.70;;;;;;5051932;28;20045;-74
2023/07/17 12:14:12;;;;;;;7.13;2.40;;;23.80;90.60;;;;;;5046015;28;20067;-74
2023/07/17 12:16:41;;;;;;;6.82;1.92;;;23.90;90.90;;;;;;5052017;28;20065;-73
2023/07/17 12:19:08;;;;;;;5.30;2.40;;;23.70;90.50;;;;;;5051934;28;20049;-75
2023/07/17 12:21:33;;;;;;;6.50;2.05;;;23.60;91.50;;;;;;5052730;28;20121;-75
2023/07/17 12:24:02;;;;;;;5.25;2.28;;;23.50;90.50;;;;;;5055623;28;20037;-75
2023/07/17 12:26:30;;;;;;;5.05;2.17;;;23.50;91.40;;;;;;5054169;28;20044;-75
2023/07/17 12:28:56;;;;;;;7.55;2.22;;;23.50;91.90;;;;;;5051180;28;20044;-73
2023/07/17 12:31:25;;;;;;;4.60;2.28;;;23.70;92.50;;;;;;5053939;28;20540;-75
2023/07/17 12:33:50;;;;;;;5.82;2.30;;;23.60;92.30;;;;;;5052945;28;20053;-75
2023/07/17 12:36:16;;;;;;;7.47;2.17;;;23.60;92.50;;;;;;5052465;28;20053;-75
2023/07/17 12:38:42;;;;;;;5.43;2.55;;;23.50;92.50;;;;;;5053150;28;20043;-74
2023/07/17 12:41:08;;;;;;;5.32;2.28;;;23.30;93.50;;;;;;5055332;28;20033;-74
2023/07/17 12:43:36;;;;;;;4.30;1.70;;;23.40;92.10;;;;;;5053635;28;20485;-75